Cold Bay Airport (CDB/PACD)




Flight Aircraft Arriving
GRZ5367 B722
B738
PANC - Ted Stevens Anchorage International Airport
United StatesAlaska Anchorage, Alaska
GRZ5371 SF34
PAKN - King Salmon Airport
United StatesAlaska King Salmon, Alaska
GRZ5372 SF34
PADU - Unalaska Airport
United StatesAlaska Unalaska, Alaska
GRZ5374 SF34
PASD - Sand Point Airport
United StatesAlaska Sand Point, Alaska
GRZ5385 SF34
PANC - Ted Stevens Anchorage International Airport
United StatesAlaska Anchorage, Alaska
Flight Aircraft Departing
GRZ5366 B722
B738
PANC - Ted Stevens Anchorage International Airport
United StatesAlaska Anchorage, Alaska
GRZ5370 SF34
PAKN - King Salmon Airport
United StatesAlaska King Salmon, Alaska
GRZ5373 SF34
PADU - Unalaska Airport
United StatesAlaska Unalaska, Alaska
GRZ5375 SF34
PASD - Sand Point Airport
United StatesAlaska Sand Point, Alaska
GRZ5384 SF34
PANC - Ted Stevens Anchorage International Airport
United StatesAlaska Anchorage, Alaska
Airport Information
Location: Cold Bay, US
Coordinates: 55.2059 / -162.726
Elevation:
Time Offset:
Local Time:
UTC Time:
Jet A Price: $0.89/lbs

Current Weather
METAR: PACD 050753Z AUTO 26012KT 10SM FEW019 OVC038 03/00 A3019 RMK AO2 PK WND 25029/0707 SLP225 T00280000 TSNO
TAF: PACD 050533Z 0506/0606 27015G25KT P6SM BKN050 TEMPO 0506/0510 BKN025 FM051000 28015KT P6SM SCT025 BKN050 FM051800 28015G25KT P6SM BKN050 FM060400 30015KT P6SM BKN050

Recent Arrivals
Date Flight Type Depart
Recent Departures
Date Flight Type Arrive